Time;durP1;ratioP1;P1;durP2;ratioP2;P2;SDS_P1;SDS_P2;PMS_P1;PMS_P2;Temp;Humidity;BMP_temperature;BMP_pressure;BME280_temperature;BME280_humidity;BME280_pressure;Samples;Min_cycle;Max_cycle;Signal;HPM_P1;HPM_P2
2021/10/09 00:03:15;;;;;;;46.03;34.53;;;;;;;8.30;100.00;102895.94;10456778;28;20045;-64
2021/10/09 00:08:18;;;;;;;62.17;42.10;;;;;;;8.34;100.00;102892.41;10456858;28;20049;-63
2021/10/09 00:13:21;;;;;;;54.25;38.50;;;;;;;8.27;100.00;102900.34;10456807;28;20052;-63
2021/10/09 00:18:23;;;;;;;54.95;38.88;;;;;;;8.19;100.00;102897.84;10456561;28;20045;-63
2021/10/09 00:23:25;;;;;;;43.90;33.83;;;;;;;8.24;100.00;102895.16;10458494;28;20057;-63
2021/10/09 00:28:27;;;;;;;55.00;36.83;;;;;;;8.16;100.00;102895.28;10456160;28;20076;-62
2021/10/09 00:33:30;;;;;;;44.75;33.83;;;;;;;8.05;100.00;102891.94;10456382;28;20059;-65
2021/10/09 00:38:32;;;;;;;51.83;36.92;;;;;;;8.16;100.00;102893.53;10456306;28;20041;-63
2021/10/09 00:43:34;;;;;;;41.22;30.40;;;;;;;8.06;100.00;102891.06;10456328;28;20068;-63
2021/10/09 00:48:37;;;;;;;55.92;36.50;;;;;;;7.90;100.00;102882.56;10455743;28;20507;-64
2021/10/09 00:53:40;;;;;;;41.67;31.30;;;;;;;8.04;100.00;102890.25;10438405;28;20064;-63
2021/10/09 00:58:43;;;;;;;52.97;36.50;;;;;;;7.89;100.00;102880.88;10438227;28;20072;-64
2021/10/09 01:03:48;;;;;;;93.07;47.17;;;;;;;7.88;100.00;102890.41;10439113;28;20053;-63
2021/10/09 01:08:50;;;;;;;50.78;36.28;;;;;;;7.92;100.00;102886.03;10455647;28;20059;-64
2021/10/09 01:13:53;;;;;;;64.25;42.50;;;;;;;7.82;100.00;102882.69;10463182;28;20508;-65
2021/10/09 01:18:57;;;;;;;54.20;37.25;;;;;;;7.76;100.00;102878.38;10463676;28;20051;-63
2021/10/09 01:23:59;;;;;;;64.13;40.58;;;;;;;7.75;100.00;102874.06;10462916;28;20511;-63
2021/10/09 01:29:02;;;;;;;69.00;43.15;;;;;;;7.78;100.00;102878.38;10463219;28;20057;-64
2021/10/09 01:34:05;;;;;;;55.63;37.60;;;;;;;7.74;100.00;102869.72;10462690;28;20045;-63
2021/10/09 01:39:08;;;;;;;66.55;42.03;;;;;;;7.94;100.00;102877.31;10445345;28;20045;-64
2021/10/09 01:44:11;;;;;;;54.80;39.42;;;;;;;7.81;100.00;102863.53;10462240;28;20052;-62
2021/10/09 01:49:14;;;;;;;74.03;44.10;;;;;;;7.69;100.00;102861.09;10444995;28;20045;-62
2021/10/09 01:54:16;;;;;;;57.60;38.90;;;;;;;7.82;100.00;102864.44;10461913;28;20049;-65
2021/10/09 01:59:18;;;;;;;57.17;37.97;;;;;;;7.81;100.00;102855.72;10462334;28;20048;-64
2021/10/09 02:04:24;;;;;;;68.18;44.80;;;;;;;7.93;100.00;102856.44;10461262;28;20519;-63
2021/10/09 02:09:26;;;;;;;60.00;40.38;;;;;;;7.96;100.00;102856.41;10461224;28;20048;-64
2021/10/09 02:14:52;;;;;;;145.50;62.65;;;;;;;8.06;100.00;102854.53;10461297;28;20049;-63
2021/10/09 02:30:38;;;;;;;70.70;46.05;;;;;;;7.97;100.00;102860.75;10460598;28;20045;-64
2021/10/09 02:35:40;;;;;;;82.10;48.00;;;;;;;8.13;100.00;102853.56;10460381;28;20049;-63
2021/10/09 02:40:43;;;;;;;117.78;58.45;;;;;;;7.89;100.00;102860.84;10460175;28;20045;-62
2021/10/09 02:45:45;;;;;;;77.20;47.92;;;;;;;7.72;100.00;102857.59;10459833;28;20052;-63
2021/10/09 02:50:48;;;;;;;81.40;48.13;;;;;;;7.58;100.00;102858.63;10459975;28;20052;-64
2021/10/09 02:55:51;;;;;;;70.63;45.45;;;;;;;7.60;100.00;102850.81;10442300;28;20045;-63
2021/10/09 03:00:53;;;;;;;78.07;48.03;;;;;;;7.42;100.00;102849.25;10459570;28;20048;-64
2021/10/09 03:05:55;;;;;;;85.78;50.30;;;;;;;7.48;100.00;102844.00;10458852;28;20072;-64
2021/10/09 03:10:57;;;;;;;64.38;39.85;;;;;;;7.59;100.00;102841.25;10458897;28;20484;-63
2021/10/09 03:16:00;;;;;;;64.63;43.83;;;;;;;7.27;100.00;102847.69;10458634;28;20056;-63
2021/10/09 03:21:03;;;;;;;57.13;38.78;;;;;;;7.63;100.00;102849.00;10458346;28;20484;-64
2021/10/09 03:26:05;;;;;;;67.75;43.28;;;;;;;7.10;100.00;102854.81;10457889;28;20060;-62
2021/10/09 03:31:08;;;;;;;59.50;40.47;;;;;;;7.07;100.00;102846.13;10457903;28;20056;-63
2021/10/09 03:36:10;;;;;;;70.63;44.92;;;;;;;7.09;100.00;102860.91;10457279;28;20377;-66
2021/10/09 03:41:14;;;;;;;64.03;41.50;;;;;;;7.32;100.00;102852.84;10457800;28;20044;-65
2021/10/09 03:46:25;;;;;;;58.35;40.78;;;;;;;7.16;100.00;102857.34;10457247;28;20060;-63
2021/10/09 03:56:48;;;;;;;72.60;43.83;;;;;;;7.21;100.00;102850.34;10457164;28;20049;-63
2021/10/09 04:01:50;;;;;;;79.35;48.10;;;;;;;7.00;100.00;102854.91;10457046;28;20401;-62
2021/10/09 04:06:53;;;;;;;98.85;53.05;;;;;;;7.04;100.00;102850.50;10457096;28;20045;-64
2021/10/09 04:11:55;;;;;;;92.45;50.83;;;;;;;6.97;100.00;102854.06;10457083;28;20052;-64
2021/10/09 04:16:58;;;;;;;80.13;47.65;;;;;;;6.82;100.00;102850.72;10456521;28;20408;-62
2021/10/09 04:22:00;;;;;;;79.75;46.97;;;;;;;6.99;100.00;102858.41;10456456;28;20386;-64
2021/10/09 04:27:02;;;;;;;73.10;45.75;;;;;;;6.87;100.00;102854.13;10458554;28;20049;-63
2021/10/09 04:32:05;;;;;;;74.13;44.47;;;;;;;7.02;100.00;102855.75;10456210;28;20396;-63
2021/10/09 04:37:07;;;;;;;62.38;42.42;;;;;;;7.04;100.00;102843.59;10456381;28;20056;-63
2021/10/09 04:42:09;;;;;;;94.53;50.38;;;;;;;6.80;100.00;102855.06;10456264;28;20052;-63
2021/10/09 04:47:12;;;;;;;64.28;40.08;;;;;;;6.74;100.00;102851.66;10461134;28;20053;-62
2021/10/09 04:52:14;;;;;;;91.88;48.72;;;;;;;6.59;100.00;102853.53;10446602;28;20048;-61
2021/10/09 04:57:16;;;;;;;82.22;50.15;;;;;;;6.48;100.00;102864.00;10464646;28;20056;-63
2021/10/09 05:02:19;;;;;;;97.68;50.75;;;;;;;6.61;100.00;102867.38;10463913;28;20060;-65
2021/10/09 05:07:21;;;;;;;71.80;40.97;;;;;;;6.49;100.00;102864.88;10463587;28;20207;-63
2021/10/09 05:12:23;;;;;;;89.88;50.13;;;;;;;6.44;100.00;102866.63;10463640;28;20052;-63
2021/10/09 05:17:26;;;;;;;69.03;42.78;;;;;;;6.48;100.00;102874.41;10463486;28;20049;-63
2021/10/09 05:22:30;;;;;;;52.13;36.28;;;;;;;6.44;100.00;102874.44;10463501;28;20045;-64
2021/10/09 05:27:35;;;;;;;83.25;45.17;;;;;;;6.29;100.00;102865.03;10462868;28;20408;-63
2021/10/09 05:32:47;;;;;;;117.15;50.72;;;;;;;6.53;100.00;102876.13;10462884;28;20053;-63
2021/10/09 05:37:49;;;;;;;70.93;43.10;;;;;;;6.28;100.00;102871.09;10462747;28;20056;-64
2021/10/09 05:42:52;;;;;;;65.05;39.38;;;;;;;6.36;100.00;102871.03;10462504;28;20148;-64
2021/10/09 05:47:54;;;;;;;93.03;48.65;;;;;;;6.18;100.00;102877.22;10462030;28;20511;-64
2021/10/09 06:42:20;;;;;;;49.17;34.35;;;;;;;6.93;100.00;102909.69;10459957;28;20091;-60
2021/10/09 07:03:36;;;;;;;170.27;41.67;;;;;;;7.07;100.00;102923.44;10459881;28;20071;-61
2021/10/09 07:08:39;;;;;;;300.08;56.60;;;;;;;7.12;100.00;102919.03;10458168;28;20484;-60
2021/10/09 07:13:42;;;;;;;212.38;45.88;;;;;;;7.27;100.00;102935.41;10458963;28;20053;-59
2021/10/09 07:18:44;;;;;;;224.88;52.92;;;;;;;7.15;100.00;102942.47;10458360;28;20052;-60
2021/10/09 07:23:46;;;;;;;190.38;47.92;;;;;;;7.08;100.00;102943.41;10458424;28;20060;-60
2021/10/09 07:28:49;;;;;;;180.75;49.90;;;;;;;7.69;100.00;102938.47;10458200;28;20049;-62
2021/10/09 07:33:51;;;;;;;205.55;60.55;;;;;;;8.26;100.00;102937.78;10457953;28;20068;-60
2021/10/09 07:38:55;;;;;;;229.25;47.40;;;;;;;8.25;100.00;102938.66;10458427;28;20048;-61
2021/10/09 07:43:57;;;;;;;141.23;51.53;;;;;;;8.11;100.00;102950.13;10457227;28;20057;-60
2021/10/09 07:48:59;;;;;;;316.17;64.47;;;;;;;8.11;100.00;102947.53;10457916;28;20045;-61
2021/10/09 07:54:03;;;;;;;134.45;51.65;;;;;;;8.27;100.00;102945.59;10457126;28;20139;-62
2021/10/09 07:59:06;;;;;;;188.68;62.35;;;;;;;8.72;100.00;102947.56;10457323;28;20052;-62
2021/10/09 08:04:10;;;;;;;251.60;62.08;;;;;;;8.57;100.00;102946.06;10456865;28;20052;-62
2021/10/09 08:09:13;;;;;;;180.68;59.08;;;;;;;8.88;100.00;102949.06;10456986;28;20052;-61
2021/10/09 08:14:15;;;;;;;98.82;55.83;;;;;;;9.00;100.00;102955.84;10456477;28;20405;-61
2021/10/09 08:19:18;;;;;;;99.75;60.63;;;;;;;9.20;100.00;102959.91;10456845;28;20048;-60
2021/10/09 08:40:09;;;;;;;64.80;47.85;;;;;;;11.97;100.00;102958.88;10456483;28;20056;-59
2021/10/09 08:45:13;;;;;;;54.00;44.20;;;;;;;13.04;100.00;102964.31;10438344;28;20496;-59
2021/10/09 08:50:15;;;;;;;51.72;43.50;;;;;;;13.61;100.00;102964.19;10438438;28;20595;-60
2021/10/09 08:55:20;;;;;;;57.53;44.33;;;;;;;13.12;100.00;102974.59;10455891;28;20048;-60
2021/10/09 09:01:20;;;;;;;54.08;42.65;;;;;;;12.80;100.00;102968.63;10438740;28;20045;-60
2021/10/09 09:06:24;;;;;;;47.42;39.63;;;;;;;13.62;100.00;102976.44;10452449;28;20055;-61
2021/10/09 09:43:53;;;;;;;33.40;26.92;;;;;;;15.44;83.69;102948.19;10487019;28;20049;-61
2021/10/09 09:48:56;;;;;;;31.75;26.42;;;;;;;16.66;79.39;102944.31;10503615;28;20423;-61
2021/10/09 09:53:59;;;;;;;34.30;23.98;;;;;;;18.28;74.74;102943.00;10503916;28;20045;-62
2021/10/09 09:59:01;;;;;;;31.48;24.08;;;;;;;18.21;76.02;102931.88;10485452;28;20489;-61
2021/10/09 10:04:04;;;;;;;34.03;26.05;;;;;;;17.90;71.90;102927.41;10502896;28;20070;-63
2021/10/09 10:09:06;;;;;;;29.05;23.83;;;;;;;17.45;73.81;102924.50;10485227;28;20058;-61
2021/10/09 10:14:09;;;;;;;35.55;23.63;;;;;;;18.25;71.11;102927.25;10501745;28;20131;-61
2021/10/09 10:19:11;;;;;;;32.28;24.38;;;;;;;17.52;67.75;102925.84;10502194;28;20056;-63
2021/10/09 10:24:48;;;;;;;25.95;22.65;;;;;;;20.07;61.45;102919.91;10487426;28;20060;-63
2021/10/09 10:30:14;;;;;;;26.70;23.70;;;;;;;18.52;67.37;102916.84;10460487;28;20057;-61
2021/10/09 10:35:31;;;;;;;26.85;23.33;;;;;;;18.93;65.43;102922.44;10459645;28;20060;-62
2021/10/09 10:41:00;;;;;;;24.63;22.02;;;;;;;18.30;67.08;102919.88;10459807;28;20514;-62
2021/10/09 10:46:25;;;;;;;28.20;23.20;;;;;;;18.94;66.78;102918.81;10458292;28;20059;-63
2021/10/09 11:02:30;;;;;;;24.73;22.05;;;;;;;20.23;64.27;102902.00;10459603;28;20044;-62
2021/10/09 11:07:35;;;;;;;29.77;24.43;;;;;;;18.38;63.09;102902.59;10459631;28;20049;-63
2021/10/09 11:12:45;;;;;;;27.38;23.17;;;;;;;18.55;61.97;102893.66;10458739;28;20296;-63
2021/10/09 11:18:00;;;;;;;27.50;24.00;;;;;;;18.41;64.01;102893.63;10459063;28;20061;-63
2021/10/09 11:23:10;;;;;;;30.77;24.73;;;;;;;19.23;64.75;102899.44;10458625;28;20067;-64
2021/10/09 11:28:29;;;;;;;26.77;22.08;;;;;;;18.56;65.90;102897.19;10458800;28;20053;-62
2021/10/09 11:33:32;;;;;;;33.13;24.10;;;;;;;18.80;64.51;102897.53;10458313;28;20045;-64
2021/10/09 11:38:34;;;;;;;40.83;23.52;;;;;;;18.63;68.66;102897.69;10458300;28;20059;-62
2021/10/09 11:43:51;;;;;;;29.50;24.38;;;;;;;18.79;67.49;102897.63;10457815;28;20052;-63
2021/10/09 12:00:38;;;;;;;29.00;24.13;;;;;;;17.58;65.99;102885.78;10457316;28;20279;-63
2021/10/09 12:06:11;;;;;;;35.45;24.50;;;;;;;18.70;63.99;102883.94;10456472;28;20052;-63
2021/10/09 12:11:23;;;;;;;27.05;22.13;;;;;;;19.00;64.04;102879.63;10456369;28;20497;-63
2021/10/09 12:16:33;;;;;;;38.33;25.15;;;;;;;17.53;70.06;102882.53;10456676;28;20396;-60
2021/10/09 12:21:39;;;;;;;30.48;23.30;;;;;;;18.28;67.23;102877.53;10455147;28;20056;-63
2021/10/09 12:26:41;;;;;;;28.83;23.58;;;;;;;17.33;68.80;102869.50;10477774;28;20052;-64
2021/10/09 12:31:46;;;;;;;28.90;23.02;;;;;;;18.89;61.08;102867.81;10493442;28;20049;-63
2021/10/09 12:37:07;;;;;;;27.92;22.98;;;;;;;18.76;62.49;102866.81;10496910;28;20127;-64
2021/10/09 12:42:10;;;;;;;;;;;;;;;17.74;62.06;102854.03;10498294;28;20048;-64
2021/10/09 12:47:13;;;;;;;31.25;22.10;;;;;;;18.92;59.33;102850.88;10497475;28;19947;-63
2021/10/09 12:52:16;;;;;;;30.85;22.25;;;;;;;19.94;60.07;102839.22;10497548;28;20053;-63
2021/10/09 12:57:18;;;;;;;30.25;23.35;;;;;;;20.01;61.35;102840.56;10497230;28;20045;-64
2021/10/09 13:02:21;;;;;;;36.28;23.33;;;;;;;18.27;65.38;102845.81;10497302;28;20045;-64
2021/10/09 13:07:23;;;;;;;29.58;21.45;;;;;;;18.89;66.15;102840.44;10501212;28;20512;-63
2021/10/09 13:12:26;;;;;;;29.70;23.38;;;;;;;16.65;68.71;102831.50;10503937;28;20045;-65
2021/10/09 13:17:28;;;;;;;35.50;25.08;;;;;;;16.65;71.48;102828.88;10504882;28;20079;-63
2021/10/09 13:22:30;;;;;;;29.30;22.33;;;;;;;17.69;68.53;102829.59;10505143;28;20048;-64
2021/10/09 13:27:36;;;;;;;28.33;23.33;;;;;;;16.45;73.94;102823.72;10464497;28;20049;-64
2021/10/09 13:32:38;;;;;;;28.55;21.42;;;;;;;17.46;69.68;102823.75;10462766;28;20041;-64
2021/10/09 13:37:52;;;;;;;29.60;22.08;;;;;;;16.28;72.93;102822.78;10462625;28;20052;-65
2021/10/09 13:42:54;;;;;;;29.55;21.05;;;;;;;16.87;72.89;102820.72;10462549;28;20132;-64
2021/10/09 13:47:56;;;;;;;29.38;22.13;;;;;;;16.83;69.25;102816.50;10462751;28;20053;-64
2021/10/09 13:52:59;;;;;;;30.70;22.50;;;;;;;16.64;73.49;102803.38;10462119;28;20041;-64
2021/10/09 13:58:02;;;;;;;32.30;22.33;;;;;;;16.90;70.28;102811.78;10462534;28;20048;-65
2021/10/09 14:03:05;;;;;;;26.05;20.83;;;;;;;16.24;74.98;102808.03;10461832;28;20052;-64
2021/10/09 14:08:08;;;;;;;29.80;20.73;;;;;;;16.61;75.87;102808.81;10461376;28;20413;-67
2021/10/09 14:13:11;;;;;;;29.95;21.77;;;;;;;17.17;71.76;102800.66;10443795;28;20103;-61
2021/10/09 14:18:16;;;;;;;33.88;21.30;;;;;;;16.13;75.28;102805.03;10461418;28;20135;-61
2021/10/09 14:23:19;;;;;;;29.67;21.02;;;;;;;16.23;76.77;102797.53;10443462;28;20067;-61
2021/10/09 14:28:21;;;;;;;28.50;21.35;;;;;;;15.76;80.75;102790.97;10460774;28;20063;-61
2021/10/09 14:33:24;;;;;;;27.25;21.30;;;;;;;17.11;75.21;102796.53;10460953;28;20053;-64
2021/10/09 14:38:26;;;;;;;26.58;20.20;;;;;;;23.23;49.94;102779.16;10460375;28;20048;-64
2021/10/09 14:43:29;;;;;;;26.90;19.88;;;;;;;26.03;42.59;102789.13;10460141;28;20045;-64
2021/10/09 14:48:36;;;;;;;29.83;19.17;;;;;;;22.99;48.79;102782.78;10460275;28;20048;-67
2021/10/09 15:20:23;;;;;;;27.42;19.83;;;;;;;22.65;50.35;102758.75;10500178;28;20045;-64
2021/10/09 15:25:25;;;;;;;25.17;18.73;;;;;;;16.78;74.05;102754.16;10501431;28;20059;-65
2021/10/09 15:30:28;;;;;;;27.00;19.17;;;;;;;15.10;86.11;102755.28;10498771;28;20106;-63
2021/10/09 15:35:31;;;;;;;25.40;19.30;;;;;;;14.45;92.95;102759.84;10500128;28;20132;-64
2021/10/09 15:40:34;;;;;;;26.90;20.20;;;;;;;13.94;97.04;102754.06;10499249;28;20044;-64
2021/10/09 15:45:37;;;;;;;21.80;17.83;;;;;;;13.84;100.00;102756.19;10481358;28;20405;-64
2021/10/09 15:50:40;;;;;;;23.73;19.63;;;;;;;13.69;100.00;102756.81;10499010;28;20053;-64
2021/10/09 15:55:43;;;;;;;27.73;19.88;;;;;;;13.50;100.00;102762.78;10498819;28;20052;-66
2021/10/09 16:00:45;;;;;;;23.23;18.10;;;;;;;13.26;100.00;102755.78;10498582;28;20048;-64
2021/10/09 16:05:47;;;;;;;27.50;21.08;;;;;;;12.95;100.00;102755.16;10498279;28;20052;-64
2021/10/09 16:10:50;;;;;;;25.23;17.00;;;;;;;12.87;100.00;102751.94;10498751;28;20047;-64
2021/10/09 16:15:52;;;;;;;24.98;20.15;;;;;;;12.64;100.00;102747.47;10498543;28;20044;-64
2021/10/09 16:20:55;;;;;;;23.95;18.42;;;;;;;12.28;100.00;102755.72;10480523;28;20041;-63
2021/10/09 16:25:58;;;;;;;27.98;19.48;;;;;;;12.21;100.00;102759.47;10497981;28;20053;-66
2021/10/09 16:31:01;;;;;;;30.80;20.88;;;;;;;12.20;100.00;102755.13;10480166;28;20480;-66
2021/10/09 16:36:04;;;;;;;28.38;19.80;;;;;;;12.08;100.00;102751.97;10497969;28;20080;-63
2021/10/09 16:41:06;;;;;;;32.15;20.13;;;;;;;12.03;100.00;102758.28;10501681;28;20045;-63
2021/10/09 16:46:09;;;;;;;28.67;20.48;;;;;;;11.86;100.00;102757.03;10505960;28;20041;-64
2021/10/09 16:51:11;;;;;;;28.73;21.23;;;;;;;11.54;100.00;102768.53;10506432;28;20045;-65
2021/10/09 16:56:13;;;;;;;31.55;22.80;;;;;;;11.41;100.00;102764.53;10505717;28;20052;-63
2021/10/09 17:01:16;;;;;;;36.38;24.00;;;;;;;11.23;100.00;102755.44;10505745;28;20045;-63
2021/10/09 17:06:19;;;;;;;28.48;20.15;;;;;;;11.11;100.00;102760.16;10505430;28;20049;-66
2021/10/09 17:11:23;;;;;;;27.83;19.77;;;;;;;11.09;100.00;102761.94;10505576;28;20044;-63
2021/10/09 17:16:27;;;;;;;30.63;21.98;;;;;;;10.89;100.00;102770.38;10504852;28;20052;-66
2021/10/09 17:21:35;;;;;;;31.77;21.65;;;;;;;10.77;100.00;102770.69;10505667;28;20048;-64
2021/10/09 17:26:39;;;;;;;32.15;24.30;;;;;;;10.69;100.00;102781.41;10504408;28;20048;-64
2021/10/09 17:31:41;;;;;;;36.60;24.40;;;;;;;10.53;100.00;102782.69;10486659;28;20055;-65
2021/10/09 17:36:44;;;;;;;34.05;24.67;;;;;;;10.45;100.00;102775.00;10504059;28;20514;-63
2021/10/09 17:41:47;;;;;;;43.60;27.95;;;;;;;10.37;100.00;102769.97;10504042;28;20044;-65
2021/10/09 17:46:49;;;;;;;35.35;24.77;;;;;;;10.34;100.00;102775.28;10503621;28;20397;-62
2021/10/09 17:51:52;;;;;;;55.20;31.70;;;;;;;10.33;100.00;102767.47;10502853;28;20053;-64
2021/10/09 17:56:56;;;;;;;39.67;25.60;;;;;;;10.35;100.00;102776.13;10503294;28;20052;-63
2021/10/09 18:01:58;;;;;;;45.38;28.70;;;;;;;10.11;100.00;102775.81;10503517;28;20049;-65
2021/10/09 18:07:01;;;;;;;42.67;28.17;;;;;;;9.91;100.00;102776.28;10502859;28;20499;-63
2021/10/09 18:12:04;;;;;;;38.10;26.00;;;;;;;9.91;100.00;102771.03;10485683;28;20052;-64
2021/10/09 18:17:07;;;;;;;41.78;26.35;;;;;;;9.95;100.00;102774.44;10502578;28;20049;-65
2021/10/09 18:22:09;;;;;;;39.45;26.38;;;;;;;9.92;100.00;102778.00;10503301;28;20055;-65
2021/10/09 18:27:11;;;;;;;38.97;26.88;;;;;;;9.68;100.00;102766.31;10528711;28;20059;-67
2021/10/09 18:32:14;;;;;;;38.60;25.83;;;;;;;9.64;100.00;102764.69;10542554;28;20062;-65
2021/10/09 18:37:17;;;;;;;41.42;27.73;;;;;;;9.58;100.00;102764.81;10543966;28;20058;-62
2021/10/09 18:42:19;;;;;;;42.72;28.77;;;;;;;9.47;100.00;102765.91;10543565;28;20047;-63
2021/10/09 18:47:22;;;;;;;52.78;33.40;;;;;;;9.56;100.00;102767.44;10543380;28;20044;-63
2021/10/09 18:52:24;;;;;;;52.28;33.83;;;;;;;9.58;100.00;102763.06;10542852;28;20058;-64
2021/10/09 18:57:28;;;;;;;49.15;29.73;;;;;;;9.51;100.00;102768.44;10541596;28;20052;-64
2021/10/09 19:02:30;;;;;;;39.55;27.33;;;;;;;9.43;100.00;102774.72;10542318;28;20044;-65
2021/10/09 19:07:33;;;;;;;50.63;32.30;;;;;;;9.26;100.00;102766.34;10541809;28;20048;-62
2021/10/09 19:12:35;;;;;;;53.30;32.95;;;;;;;9.35;100.00;102770.53;10542288;28;20475;-63
2021/10/09 19:17:39;;;;;;;41.78;28.40;;;;;;;9.20;100.00;102763.88;10542170;28;20047;-66
2021/10/09 19:22:42;;;;;;;46.38;30.65;;;;;;;9.21;100.00;102766.47;10540882;28;20044;-63
2021/10/09 19:27:46;;;;;;;48.10;31.30;;;;;;;9.17;100.00;102758.69;10501946;28;20055;-65
2021/10/09 19:32:49;;;;;;;47.30;31.70;;;;;;;8.96;100.00;102768.69;10499623;28;20048;-64
2021/10/09 19:37:51;;;;;;;48.40;30.95;;;;;;;8.92;100.00;102769.63;10499831;28;20049;-67
2021/10/09 19:42:54;;;;;;;50.35;33.42;;;;;;;8.90;100.00;102771.41;10499263;28;20044;-64
2021/10/09 19:48:01;;;;;;;46.53;32.17;;;;;;;8.84;100.00;102761.94;10499679;28;20048;-63
2021/10/09 19:53:15;;;;;;;45.83;29.17;;;;;;;9.27;100.00;102755.84;10481984;28;20072;-65
2021/10/09 19:58:18;;;;;;;44.88;29.90;;;;;;;8.87;100.00;102755.78;10498734;28;20044;-65
2021/10/09 20:03:20;;;;;;;47.40;30.75;;;;;;;8.79;100.00;102763.75;10480635;28;20051;-63
2021/10/09 20:08:23;;;;;;;49.85;32.95;;;;;;;8.70;100.00;102769.16;10499293;28;20056;-67
2021/10/09 20:13:25;;;;;;;45.88;31.30;;;;;;;8.73;100.00;102769.09;10498208;28;20408;-65
2021/10/09 20:18:27;;;;;;;55.40;32.45;;;;;;;8.71;100.00;102773.50;10497732;28;20059;-63
2021/10/09 20:23:31;;;;;;;46.42;30.88;;;;;;;8.55;100.00;102775.50;10497981;28;20056;-63
2021/10/09 20:28:35;;;;;;;52.63;32.50;;;;;;;8.58;100.00;102774.59;10497979;28;20404;-61
2021/10/09 20:33:37;;;;;;;44.97;30.35;;;;;;;8.48;100.00;102772.13;10497907;28;20048;-62
2021/10/09 20:38:39;;;;;;;57.65;35.58;;;;;;;8.49;100.00;102775.59;10481142;28;20044;-65
2021/10/09 20:43:41;;;;;;;49.35;33.33;;;;;;;8.39;100.00;102772.28;10498518;28;20045;-65
2021/10/09 20:48:44;;;;;;;50.83;34.97;;;;;;;8.29;100.00;102774.16;10497739;28;20056;-63
2021/10/09 20:53:46;;;;;;;55.38;33.00;;;;;;;8.28;100.00;102772.44;10479811;28;20044;-63
2021/10/09 20:58:48;;;;;;;42.13;29.67;;;;;;;8.19;100.00;102783.88;10497617;28;20060;-65
2021/10/09 21:03:51;;;;;;;53.75;32.67;;;;;;;8.15;100.00;102778.72;10497138;28;20071;-65
2021/10/09 21:08:58;;;;;;;53.08;32.97;;;;;;;8.05;100.00;102775.41;10479909;28;20048;-64
2021/10/09 21:24:29;;;;;;;42.33;30.50;;;;;;;8.03;100.00;102760.66;10497188;28;20052;-66
2021/10/09 21:29:32;;;;;;;41.85;30.42;;;;;;;7.81;100.00;102763.59;10485200;28;20370;-63
2021/10/09 21:34:35;;;;;;;50.72;33.55;;;;;;;7.86;100.00;102753.97;10504561;28;20049;-63
2021/10/09 21:39:37;;;;;;;47.70;30.27;;;;;;;7.84;100.00;102758.34;10504262;28;20048;-62
2021/10/09 21:44:40;;;;;;;52.55;33.53;;;;;;;7.70;100.00;102755.06;10504349;28;20063;-65
2021/10/09 21:49:42;;;;;;;56.85;35.30;;;;;;;7.61;100.00;102749.06;10503743;28;20541;-62
2021/10/09 21:54:45;;;;;;;46.70;31.95;;;;;;;7.61;100.00;102749.06;10503804;28;20404;-66
2021/10/09 22:37:04;;;;;;;56.22;34.03;;;;;;;7.36;100.00;102742.47;10502030;28;20060;-63
2021/10/09 22:42:07;;;;;;;48.30;33.78;;;;;;;7.42;100.00;102747.63;10501701;28;20053;-70
2021/10/09 22:47:09;;;;;;;53.67;33.63;;;;;;;7.36;100.00;102755.50;10501395;28;20075;-65
2021/10/09 22:52:11;;;;;;;52.67;35.88;;;;;;;7.30;100.00;102758.22;10501544;28;20051;-67
2021/10/09 22:57:14;;;;;;;45.72;32.20;;;;;;;7.25;100.00;102753.03;10500947;28;20492;-63
2021/10/09 23:02:16;;;;;;;47.30;32.80;;;;;;;7.25;100.00;102753.03;10483491;28;20056;-65
2021/10/09 23:07:19;;;;;;;59.35;35.40;;;;;;;7.15;100.00;102751.44;10500390;28;20048;-65
2021/10/09 23:12:21;;;;;;;46.17;33.03;;;;;;;7.32;100.00;102751.22;10501114;28;20059;-68
2021/10/09 23:17:23;;;;;;;49.85;34.92;;;;;;;7.06;100.00;102755.88;10500253;28;20056;-67
2021/10/09 23:22:25;;;;;;;41.78;31.23;;;;;;;7.11;100.00;102754.94;10499903;28;20048;-62
2021/10/09 23:27:28;;;;;;;52.63;35.47;;;;;;;6.94;100.00;102760.34;10499669;28;20123;-64
2021/10/09 23:32:30;;;;;;;50.67;36.45;;;;;;;6.97;100.00;102752.50;10499425;28;20481;-63
2021/10/09 23:37:32;;;;;;;46.80;32.05;;;;;;;7.00;100.00;102749.88;10481747;28;20412;-68
2021/10/09 23:42:35;;;;;;;52.13;33.70;;;;;;;6.89;100.00;102749.97;10481645;28;20428;-62
2021/10/09 23:47:39;;;;;;;52.03;34.72;;;;;;;6.85;100.00;102749.13;10481359;28;20413;-64
2021/10/09 23:52:41;;;;;;;43.85;31.08;;;;;;;7.02;100.00;102743.75;10498364;28;20051;-64
2021/10/09 23:57:43;;;;;;;69.60;43.22;;;;;;;6.96;100.00;102740.34;10499000;28;20052;-63
